sensor_id;sensor_type;location;lat;lon;timestamp;P1;durP1;ratioP1;P2;durP2;ratioP2
16845;SDS011;8539;53.188;8.696;2023-03-05T00:00:38;12.85;;;4.75;;
16845;SDS011;8539;53.188;8.696;2023-03-05T00:03:04;6.70;;;2.38;;
16845;SDS011;8539;53.188;8.696;2023-03-05T00:05:30;17.73;;;3.15;;
16845;SDS011;8539;53.188;8.696;2023-03-05T00:07:56;9.65;;;2.42;;
16845;SDS011;8539;53.188;8.696;2023-03-05T00:10:22;12.15;;;2.45;;
16845;SDS011;8539;53.188;8.696;2023-03-05T00:12:48;9.70;;;2.25;;
16845;SDS011;8539;53.188;8.696;2023-03-05T00:15:14;13.30;;;3.38;;
16845;SDS011;8539;53.188;8.696;2023-03-05T00:17:40;12.38;;;2.33;;
16845;SDS011;8539;53.188;8.696;2023-03-05T00:20:07;11.57;;;2.60;;
16845;SDS011;8539;53.188;8.696;2023-03-05T00:22:34;13.02;;;2.28;;
16845;SDS011;8539;53.188;8.696;2023-03-05T00:25:02;13.18;;;2.35;;
16845;SDS011;8539;53.188;8.696;2023-03-05T00:27:29;12.45;;;2.40;;
16845;SDS011;8539;53.188;8.696;2023-03-05T00:29:56;6.38;;;1.92;;
16845;SDS011;8539;53.188;8.696;2023-03-05T00:32:22;10.25;;;2.25;;
16845;SDS011;8539;53.188;8.696;2023-03-05T00:34:48;10.93;;;3.00;;
16845;SDS011;8539;53.188;8.696;2023-03-05T00:37:14;8.48;;;3.47;;
16845;SDS011;8539;53.188;8.696;2023-03-05T00:39:41;10.98;;;2.72;;
16845;SDS011;8539;53.188;8.696;2023-03-05T00:42:07;13.32;;;2.83;;
16845;SDS011;8539;53.188;8.696;2023-03-05T00:44:33;11.57;;;2.22;;
16845;SDS011;8539;53.188;8.696;2023-03-05T00:46:59;11.98;;;2.65;;
16845;SDS011;8539;53.188;8.696;2023-03-05T00:49:25;10.20;;;2.97;;
16845;SDS011;8539;53.188;8.696;2023-03-05T00:51:52;5.13;;;2.67;;
16845;SDS011;8539;53.188;8.696;2023-03-05T00:54:18;11.55;;;2.83;;
16845;SDS011;8539;53.188;8.696;2023-03-05T00:56:44;7.03;;;2.42;;
16845;SDS011;8539;53.188;8.696;2023-03-05T00:59:10;5.22;;;2.35;;
16845;SDS011;8539;53.188;8.696;2023-03-05T01:01:36;8.98;;;2.22;;
16845;SDS011;8539;53.188;8.696;2023-03-05T01:04:02;3.30;;;1.67;;
16845;SDS011;8539;53.188;8.696;2023-03-05T01:06:29;6.60;;;3.90;;
16845;SDS011;8539;53.188;8.696;2023-03-05T01:08:55;8.15;;;2.63;;
16845;SDS011;8539;53.188;8.696;2023-03-05T01:11:21;6.05;;;2.90;;
16845;SDS011;8539;53.188;8.696;2023-03-05T01:13:47;7.20;;;3.22;;
16845;SDS011;8539;53.188;8.696;2023-03-05T01:16:13;8.15;;;2.60;;
16845;SDS011;8539;53.188;8.696;2023-03-05T01:18:40;4.50;;;1.95;;
16845;SDS011;8539;53.188;8.696;2023-03-05T01:21:06;7.78;;;1.90;;
16845;SDS011;8539;53.188;8.696;2023-03-05T01:23:32;16.48;;;2.28;;
16845;SDS011;8539;53.188;8.696;2023-03-05T01:26:00;7.22;;;1.40;;
16845;SDS011;8539;53.188;8.696;2023-03-05T01:28:26;5.28;;;1.65;;
16845;SDS011;8539;53.188;8.696;2023-03-05T01:30:52;3.45;;;1.67;;
16845;SDS011;8539;53.188;8.696;2023-03-05T01:33:18;5.20;;;1.92;;
16845;SDS011;8539;53.188;8.696;2023-03-05T01:35:45;8.85;;;2.13;;
16845;SDS011;8539;53.188;8.696;2023-03-05T01:38:13;17.83;;;1.98;;
16845;SDS011;8539;53.188;8.696;2023-03-05T01:40:40;6.55;;;2.50;;
16845;SDS011;8539;53.188;8.696;2023-03-05T01:45:36;4.50;;;1.55;;
16845;SDS011;8539;53.188;8.696;2023-03-05T01:48:03;4.93;;;1.65;;
16845;SDS011;8539;53.188;8.696;2023-03-05T01:50:29;9.32;;;2.03;;
16845;SDS011;8539;53.188;8.696;2023-03-05T01:53:03;4.57;;;1.60;;
16845;SDS011;8539;53.188;8.696;2023-03-05T01:55:31;8.65;;;2.00;;
16845;SDS011;8539;53.188;8.696;2023-03-05T02:00:28;5.25;;;1.60;;
16845;SDS011;8539;53.188;8.696;2023-03-05T02:03:00;7.60;;;1.75;;
16845;SDS011;8539;53.188;8.696;2023-03-05T02:05:30;9.23;;;1.67;;
16845;SDS011;8539;53.188;8.696;2023-03-05T02:07:59;4.70;;;1.90;;
16845;SDS011;8539;53.188;8.696;2023-03-05T02:10:28;6.07;;;1.58;;
16845;SDS011;8539;53.188;8.696;2023-03-05T02:12:57;4.18;;;1.50;;
16845;SDS011;8539;53.188;8.696;2023-03-05T02:15:27;6.50;;;1.70;;
16845;SDS011;8539;53.188;8.696;2023-03-05T02:17:54;3.00;;;1.73;;
16845;SDS011;8539;53.188;8.696;2023-03-05T02:20:21;4.68;;;1.88;;
16845;SDS011;8539;53.188;8.696;2023-03-05T02:22:50;5.68;;;1.40;;
16845;SDS011;8539;53.188;8.696;2023-03-05T02:25:18;3.80;;;1.35;;
16845;SDS011;8539;53.188;8.696;2023-03-05T02:27:53;2.63;;;1.48;;
16845;SDS011;8539;53.188;8.696;2023-03-05T02:30:25;5.57;;;2.30;;
16845;SDS011;8539;53.188;8.696;2023-03-05T02:32:52;2.47;;;1.92;;
16845;SDS011;8539;53.188;8.696;2023-03-05T02:35:18;7.68;;;1.88;;
16845;SDS011;8539;53.188;8.696;2023-03-05T02:37:45;4.72;;;1.80;;
16845;SDS011;8539;53.188;8.696;2023-03-05T02:40:11;4.78;;;1.42;;
16845;SDS011;8539;53.188;8.696;2023-03-05T02:42:38;8.05;;;1.58;;
16845;SDS011;8539;53.188;8.696;2023-03-05T02:45:05;3.58;;;1.55;;
16845;SDS011;8539;53.188;8.696;2023-03-05T02:47:31;4.38;;;1.35;;
16845;SDS011;8539;53.188;8.696;2023-03-05T02:49:58;6.55;;;1.35;;
16845;SDS011;8539;53.188;8.696;2023-03-05T02:52:24;2.85;;;1.30;;
16845;SDS011;8539;53.188;8.696;2023-03-05T02:54:51;4.05;;;1.35;;
16845;SDS011;8539;53.188;8.696;2023-03-05T02:57:17;3.38;;;1.27;;
16845;SDS011;8539;53.188;8.696;2023-03-05T02:59:45;4.30;;;1.30;;
16845;SDS011;8539;53.188;8.696;2023-03-05T03:02:12;4.18;;;1.38;;
16845;SDS011;8539;53.188;8.696;2023-03-05T03:04:38;3.30;;;2.95;;
16845;SDS011;8539;53.188;8.696;2023-03-05T03:07:04;7.95;;;1.65;;
16845;SDS011;8539;53.188;8.696;2023-03-05T03:09:32;6.60;;;1.50;;
16845;SDS011;8539;53.188;8.696;2023-03-05T03:11:59;4.38;;;1.88;;
16845;SDS011;8539;53.188;8.696;2023-03-05T03:14:25;6.82;;;1.58;;
16845;SDS011;8539;53.188;8.696;2023-03-05T03:16:51;5.78;;;2.05;;
16845;SDS011;8539;53.188;8.696;2023-03-05T03:19:17;6.57;;;1.67;;
16845;SDS011;8539;53.188;8.696;2023-03-05T03:21:43;2.33;;;1.10;;
16845;SDS011;8539;53.188;8.696;2023-03-05T03:24:09;5.00;;;1.27;;
16845;SDS011;8539;53.188;8.696;2023-03-05T03:26:36;10.23;;;1.85;;
16845;SDS011;8539;53.188;8.696;2023-03-05T03:29:02;6.07;;;1.95;;
16845;SDS011;8539;53.188;8.696;2023-03-05T03:31:28;5.57;;;1.83;;
16845;SDS011;8539;53.188;8.696;2023-03-05T03:33:54;4.60;;;1.38;;
16845;SDS011;8539;53.188;8.696;2023-03-05T03:36:20;8.25;;;1.75;;
16845;SDS011;8539;53.188;8.696;2023-03-05T03:38:46;8.52;;;1.73;;
16845;SDS011;8539;53.188;8.696;2023-03-05T03:41:12;6.15;;;2.13;;
16845;SDS011;8539;53.188;8.696;2023-03-05T03:43:38;2.45;;;1.58;;
16845;SDS011;8539;53.188;8.696;2023-03-05T03:46:05;15.38;;;2.33;;
16845;SDS011;8539;53.188;8.696;2023-03-05T03:48:32;4.68;;;1.60;;
16845;SDS011;8539;53.188;8.696;2023-03-05T03:50:58;6.93;;;1.77;;
16845;SDS011;8539;53.188;8.696;2023-03-05T03:53:24;5.25;;;1.90;;
16845;SDS011;8539;53.188;8.696;2023-03-05T03:55:50;8.32;;;3.30;;
16845;SDS011;8539;53.188;8.696;2023-03-05T03:58:23;5.50;;;2.03;;
16845;SDS011;8539;53.188;8.696;2023-03-05T04:00:49;6.57;;;2.65;;
16845;SDS011;8539;53.188;8.696;2023-03-05T04:03:15;9.00;;;2.85;;
16845;SDS011;8539;53.188;8.696;2023-03-05T04:05:41;3.72;;;1.60;;
16845;SDS011;8539;53.188;8.696;2023-03-05T04:08:07;3.55;;;2.28;;
16845;SDS011;8539;53.188;8.696;2023-03-05T04:10:37;4.05;;;2.17;;
16845;SDS011;8539;53.188;8.696;2023-03-05T04:13:04;6.70;;;2.22;;
16845;SDS011;8539;53.188;8.696;2023-03-05T04:15:31;6.20;;;2.08;;
16845;SDS011;8539;53.188;8.696;2023-03-05T04:17:58;3.10;;;1.50;;
16845;SDS011;8539;53.188;8.696;2023-03-05T04:20:24;5.25;;;1.77;;
16845;SDS011;8539;53.188;8.696;2023-03-05T04:22:50;3.17;;;1.60;;
16845;SDS011;8539;53.188;8.696;2023-03-05T04:25:17;3.28;;;1.80;;
16845;SDS011;8539;53.188;8.696;2023-03-05T04:27:43;7.18;;;1.67;;
16845;SDS011;8539;53.188;8.696;2023-03-05T04:30:10;10.75;;;4.07;;
16845;SDS011;8539;53.188;8.696;2023-03-05T04:32:39;6.75;;;1.63;;
16845;SDS011;8539;53.188;8.696;2023-03-05T04:35:06;6.10;;;1.88;;
16845;SDS011;8539;53.188;8.696;2023-03-05T04:37:32;5.60;;;1.88;;
16845;SDS011;8539;53.188;8.696;2023-03-05T04:39:58;7.38;;;1.40;;
16845;SDS011;8539;53.188;8.696;2023-03-05T04:42:24;7.68;;;1.98;;
16845;SDS011;8539;53.188;8.696;2023-03-05T04:44:50;8.57;;;2.13;;
16845;SDS011;8539;53.188;8.696;2023-03-05T04:47:16;9.73;;;1.90;;
16845;SDS011;8539;53.188;8.696;2023-03-05T04:49:43;4.07;;;1.48;;
16845;SDS011;8539;53.188;8.696;2023-03-05T04:52:10;5.63;;;1.40;;
16845;SDS011;8539;53.188;8.696;2023-03-05T04:54:37;6.13;;;1.80;;
16845;SDS011;8539;53.188;8.696;2023-03-05T04:57:04;4.82;;;1.30;;
16845;SDS011;8539;53.188;8.696;2023-03-05T04:59:30;5.22;;;2.50;;
16845;SDS011;8539;53.188;8.696;2023-03-05T05:01:57;5.40;;;1.35;;
16845;SDS011;8539;53.188;8.696;2023-03-05T05:04:23;4.22;;;1.15;;
16845;SDS011;8539;53.188;8.696;2023-03-05T05:06:49;4.35;;;2.00;;
16845;SDS011;8539;53.188;8.696;2023-03-05T05:09:15;4.43;;;1.13;;
16845;SDS011;8539;53.188;8.696;2023-03-05T05:11:41;4.88;;;1.38;;
16845;SDS011;8539;53.188;8.696;2023-03-05T05:14:07;4.32;;;1.50;;
16845;SDS011;8539;53.188;8.696;2023-03-05T05:16:33;6.35;;;1.77;;
16845;SDS011;8539;53.188;8.696;2023-03-05T05:18:59;4.93;;;1.63;;
16845;SDS011;8539;53.188;8.696;2023-03-05T05:21:25;7.57;;;2.85;;
16845;SDS011;8539;53.188;8.696;2023-03-05T05:23:51;5.80;;;1.55;;
16845;SDS011;8539;53.188;8.696;2023-03-05T05:26:17;7.38;;;1.80;;
16845;SDS011;8539;53.188;8.696;2023-03-05T05:28:43;5.75;;;1.77;;
16845;SDS011;8539;53.188;8.696;2023-03-05T05:31:10;4.43;;;1.38;;
16845;SDS011;8539;53.188;8.696;2023-03-05T05:33:39;7.88;;;1.38;;
16845;SDS011;8539;53.188;8.696;2023-03-05T05:36:06;3.17;;;1.02;;
16845;SDS011;8539;53.188;8.696;2023-03-05T05:38:33;8.50;;;2.05;;
16845;SDS011;8539;53.188;8.696;2023-03-05T05:43:33;2.22;;;1.02;;
16845;SDS011;8539;53.188;8.696;2023-03-05T05:46:04;4.25;;;1.45;;
16845;SDS011;8539;53.188;8.696;2023-03-05T05:48:32;5.47;;;1.48;;
16845;SDS011;8539;53.188;8.696;2023-03-05T05:51:03;4.15;;;1.10;;
16845;SDS011;8539;53.188;8.696;2023-03-05T05:53:40;5.82;;;1.60;;
16845;SDS011;8539;53.188;8.696;2023-03-05T05:56:07;4.15;;;1.10;;
16845;SDS011;8539;53.188;8.696;2023-03-05T05:58:35;2.88;;;1.20;;
16845;SDS011;8539;53.188;8.696;2023-03-05T06:01:02;2.33;;;1.25;;
16845;SDS011;8539;53.188;8.696;2023-03-05T06:03:36;5.95;;;2.58;;
16845;SDS011;8539;53.188;8.696;2023-03-05T06:06:02;4.68;;;1.98;;
16845;SDS011;8539;53.188;8.696;2023-03-05T06:08:32;2.55;;;1.60;;
16845;SDS011;8539;53.188;8.696;2023-03-05T06:10:58;3.25;;;1.48;;
16845;SDS011;8539;53.188;8.696;2023-03-05T06:13:24;4.65;;;1.33;;
16845;SDS011;8539;53.188;8.696;2023-03-05T06:15:54;3.90;;;1.50;;
16845;SDS011;8539;53.188;8.696;2023-03-05T06:18:24;5.63;;;2.17;;
16845;SDS011;8539;53.188;8.696;2023-03-05T06:20:58;1.73;;;1.35;;
16845;SDS011;8539;53.188;8.696;2023-03-05T06:23:25;5.97;;;1.90;;
16845;SDS011;8539;53.188;8.696;2023-03-05T06:25:52;3.10;;;1.77;;
16845;SDS011;8539;53.188;8.696;2023-03-05T06:28:19;2.58;;;1.50;;
16845;SDS011;8539;53.188;8.696;2023-03-05T06:30:45;2.85;;;1.83;;
16845;SDS011;8539;53.188;8.696;2023-03-05T06:33:12;2.15;;;1.90;;
16845;SDS011;8539;53.188;8.696;2023-03-05T06:35:38;4.05;;;1.90;;
16845;SDS011;8539;53.188;8.696;2023-03-05T06:38:07;4.32;;;2.22;;
16845;SDS011;8539;53.188;8.696;2023-03-05T06:40:34;1.88;;;1.65;;
16845;SDS011;8539;53.188;8.696;2023-03-05T06:43:00;6.43;;;1.90;;
16845;SDS011;8539;53.188;8.696;2023-03-05T06:45:26;3.17;;;1.48;;
16845;SDS011;8539;53.188;8.696;2023-03-05T06:47:52;6.38;;;2.45;;
16845;SDS011;8539;53.188;8.696;2023-03-05T06:50:18;3.33;;;1.90;;
16845;SDS011;8539;53.188;8.696;2023-03-05T06:52:47;6.47;;;1.95;;
16845;SDS011;8539;53.188;8.696;2023-03-05T06:55:14;7.97;;;2.25;;
16845;SDS011;8539;53.188;8.696;2023-03-05T06:57:40;3.60;;;2.95;;
16845;SDS011;8539;53.188;8.696;2023-03-05T07:00:06;7.85;;;4.40;;
16845;SDS011;8539;53.188;8.696;2023-03-05T07:02:38;6.55;;;3.40;;
16845;SDS011;8539;53.188;8.696;2023-03-05T07:05:05;7.03;;;4.13;;
16845;SDS011;8539;53.188;8.696;2023-03-05T07:07:32;5.88;;;3.10;;
16845;SDS011;8539;53.188;8.696;2023-03-05T07:09:59;10.80;;;4.38;;
16845;SDS011;8539;53.188;8.696;2023-03-05T07:12:25;9.35;;;2.97;;
16845;SDS011;8539;53.188;8.696;2023-03-05T07:14:51;8.68;;;3.55;;
16845;SDS011;8539;53.188;8.696;2023-03-05T07:17:17;5.60;;;2.83;;
16845;SDS011;8539;53.188;8.696;2023-03-05T07:19:43;5.93;;;2.47;;
16845;SDS011;8539;53.188;8.696;2023-03-05T07:22:09;4.88;;;2.45;;
16845;SDS011;8539;53.188;8.696;2023-03-05T07:24:35;4.78;;;2.67;;
16845;SDS011;8539;53.188;8.696;2023-03-05T07:27:02;11.18;;;4.32;;
16845;SDS011;8539;53.188;8.696;2023-03-05T07:29:28;6.32;;;2.10;;
16845;SDS011;8539;53.188;8.696;2023-03-05T07:31:54;4.95;;;2.05;;
16845;SDS011;8539;53.188;8.696;2023-03-05T07:34:20;5.45;;;1.85;;
16845;SDS011;8539;53.188;8.696;2023-03-05T07:36:49;10.82;;;2.65;;
16845;SDS011;8539;53.188;8.696;2023-03-05T07:39:16;5.70;;;1.65;;
16845;SDS011;8539;53.188;8.696;2023-03-05T07:41:45;5.10;;;1.85;;
16845;SDS011;8539;53.188;8.696;2023-03-05T07:44:12;4.63;;;1.65;;
16845;SDS011;8539;53.188;8.696;2023-03-05T07:46:38;5.45;;;1.38;;
16845;SDS011;8539;53.188;8.696;2023-03-05T07:49:04;6.00;;;1.77;;
16845;SDS011;8539;53.188;8.696;2023-03-05T07:51:30;6.85;;;2.05;;
16845;SDS011;8539;53.188;8.696;2023-03-05T07:53:57;6.13;;;1.65;;
16845;SDS011;8539;53.188;8.696;2023-03-05T07:56:33;4.00;;;1.30;;
16845;SDS011;8539;53.188;8.696;2023-03-05T07:59:01;3.30;;;1.40;;
16845;SDS011;8539;53.188;8.696;2023-03-05T08:01:31;4.72;;;1.63;;
16845;SDS011;8539;53.188;8.696;2023-03-05T08:03:58;3.90;;;2.33;;
16845;SDS011;8539;53.188;8.696;2023-03-05T08:06:24;4.35;;;1.20;;
16845;SDS011;8539;53.188;8.696;2023-03-05T08:08:51;1.50;;;0.95;;
16845;SDS011;8539;53.188;8.696;2023-03-05T08:11:17;4.68;;;1.10;;
16845;SDS011;8539;53.188;8.696;2023-03-05T08:13:43;2.58;;;0.90;;
16845;SDS011;8539;53.188;8.696;2023-03-05T08:16:11;6.32;;;1.00;;
16845;SDS011;8539;53.188;8.696;2023-03-05T08:18:42;2.40;;;0.90;;
16845;SDS011;8539;53.188;8.696;2023-03-05T08:21:18;3.85;;;1.95;;
16845;SDS011;8539;53.188;8.696;2023-03-05T08:23:46;2.13;;;1.17;;
16845;SDS011;8539;53.188;8.696;2023-03-05T08:26:13;5.00;;;1.40;;
16845;SDS011;8539;53.188;8.696;2023-03-05T08:28:41;6.15;;;1.25;;
16845;SDS011;8539;53.188;8.696;2023-03-05T08:31:09;5.03;;;1.27;;
16845;SDS011;8539;53.188;8.696;2023-03-05T08:33:35;5.07;;;1.38;;
16845;SDS011;8539;53.188;8.696;2023-03-05T08:36:02;2.70;;;1.25;;
16845;SDS011;8539;53.188;8.696;2023-03-05T08:38:28;1.90;;;1.00;;
16845;SDS011;8539;53.188;8.696;2023-03-05T08:40:55;10.50;;;1.98;;
16845;SDS011;8539;53.188;8.696;2023-03-05T08:43:21;4.07;;;1.48;;
16845;SDS011;8539;53.188;8.696;2023-03-05T08:45:47;2.30;;;1.52;;
16845;SDS011;8539;53.188;8.696;2023-03-05T08:48:14;6.50;;;1.40;;
16845;SDS011;8539;53.188;8.696;2023-03-05T08:50:40;2.00;;;1.02;;
16845;SDS011;8539;53.188;8.696;2023-03-05T08:53:06;5.65;;;1.38;;
16845;SDS011;8539;53.188;8.696;2023-03-05T08:55:33;3.80;;;0.93;;
16845;SDS011;8539;53.188;8.696;2023-03-05T08:57:59;5.97;;;1.10;;
16845;SDS011;8539;53.188;8.696;2023-03-05T09:00:25;5.25;;;1.58;;
16845;SDS011;8539;53.188;8.696;2023-03-05T09:02:51;4.15;;;1.42;;
16845;SDS011;8539;53.188;8.696;2023-03-05T09:05:17;4.18;;;1.25;;
16845;SDS011;8539;53.188;8.696;2023-03-05T09:07:43;4.20;;;2.08;;
16845;SDS011;8539;53.188;8.696;2023-03-05T09:10:10;5.38;;;1.90;;
16845;SDS011;8539;53.188;8.696;2023-03-05T09:12:39;6.47;;;1.52;;
16845;SDS011;8539;53.188;8.696;2023-03-05T09:15:07;4.45;;;2.13;;
16845;SDS011;8539;53.188;8.696;2023-03-05T09:17:35;4.05;;;1.38;;
16845;SDS011;8539;53.188;8.696;2023-03-05T09:20:03;2.58;;;1.40;;
16845;SDS011;8539;53.188;8.696;2023-03-05T09:22:30;2.30;;;1.10;;
16845;SDS011;8539;53.188;8.696;2023-03-05T09:24:57;7.10;;;1.52;;
16845;SDS011;8539;53.188;8.696;2023-03-05T09:27:23;10.68;;;2.42;;
16845;SDS011;8539;53.188;8.696;2023-03-05T09:29:49;6.10;;;1.30;;
16845;SDS011;8539;53.188;8.696;2023-03-05T09:32:17;6.25;;;1.35;;
16845;SDS011;8539;53.188;8.696;2023-03-05T09:34:43;3.03;;;1.00;;
16845;SDS011;8539;53.188;8.696;2023-03-05T09:37:09;0.82;;;0.47;;
16845;SDS011;8539;53.188;8.696;2023-03-05T09:39:35;1.35;;;0.75;;
16845;SDS011;8539;53.188;8.696;2023-03-05T09:50:36;3.40;;;0.95;;
16845;SDS011;8539;53.188;8.696;2023-03-05T09:53:07;3.80;;;1.48;;
16845;SDS011;8539;53.188;8.696;2023-03-05T09:55:51;4.03;;;0.77;;
16845;SDS011;8539;53.188;8.696;2023-03-05T09:58:39;2.08;;;0.70;;
16845;SDS011;8539;53.188;8.696;2023-03-05T10:01:12;1.27;;;0.70;;
16845;SDS011;8539;53.188;8.696;2023-03-05T10:06:29;4.07;;;0.90;;
16845;SDS011;8539;53.188;8.696;2023-03-05T10:14:06;3.08;;;0.90;;
16845;SDS011;8539;53.188;8.696;2023-03-05T10:27:48;3.75;;;0.90;;
16845;SDS011;8539;53.188;8.696;2023-03-05T10:39:12;3.95;;;1.30;;
16845;SDS011;8539;53.188;8.696;2023-03-05T10:47:58;1.73;;;0.57;;
16845;SDS011;8539;53.188;8.696;2023-03-05T10:50:26;2.65;;;0.60;;
16845;SDS011;8539;53.188;8.696;2023-03-05T10:53:13;1.83;;;0.82;;
16845;SDS011;8539;53.188;8.696;2023-03-05T10:55:40;3.08;;;0.88;;
16845;SDS011;8539;53.188;8.696;2023-03-05T10:58:14;2.05;;;0.80;;
16845;SDS011;8539;53.188;8.696;2023-03-05T11:06:41;3.25;;;0.73;;
16845;SDS011;8539;53.188;8.696;2023-03-05T11:14:33;4.32;;;0.80;;
16845;SDS011;8539;53.188;8.696;2023-03-05T11:19:53;2.60;;;0.68;;
16845;SDS011;8539;53.188;8.696;2023-03-05T11:22:20;3.03;;;0.82;;
16845;SDS011;8539;53.188;8.696;2023-03-05T11:27:50;3.10;;;1.00;;
16845;SDS011;8539;53.188;8.696;2023-03-05T11:30:21;2.83;;;0.90;;
16845;SDS011;8539;53.188;8.696;2023-03-05T11:35:34;1.38;;;0.60;;
16845;SDS011;8539;53.188;8.696;2023-03-05T11:38:03;3.35;;;0.63;;
16845;SDS011;8539;53.188;8.696;2023-03-05T11:40:31;2.25;;;0.80;;
16845;SDS011;8539;53.188;8.696;2023-03-05T11:43:02;1.60;;;0.43;;
16845;SDS011;8539;53.188;8.696;2023-03-05T11:45:29;0.88;;;0.52;;
16845;SDS011;8539;53.188;8.696;2023-03-05T11:50:36;1.33;;;0.65;;
16845;SDS011;8539;53.188;8.696;2023-03-05T11:53:06;3.80;;;0.43;;
16845;SDS011;8539;53.188;8.696;2023-03-05T11:55:42;1.00;;;0.53;;
16845;SDS011;8539;53.188;8.696;2023-03-05T12:01:18;0.95;;;0.55;;
16845;SDS011;8539;53.188;8.696;2023-03-05T12:03:46;6.55;;;1.92;;
16845;SDS011;8539;53.188;8.696;2023-03-05T12:06:16;0.52;;;0.50;;
16845;SDS011;8539;53.188;8.696;2023-03-05T12:08:56;5.35;;;1.70;;
16845;SDS011;8539;53.188;8.696;2023-03-05T12:11:25;0.60;;;0.50;;
16845;SDS011;8539;53.188;8.696;2023-03-05T12:17:00;4.63;;;1.25;;
16845;SDS011;8539;53.188;8.696;2023-03-05T12:22:38;5.10;;;1.30;;
16845;SDS011;8539;53.188;8.696;2023-03-05T12:28:04;1.40;;;0.98;;
16845;SDS011;8539;53.188;8.696;2023-03-05T12:33:02;2.75;;;0.80;;
16845;SDS011;8539;53.188;8.696;2023-03-05T12:38:02;2.15;;;0.70;;
16845;SDS011;8539;53.188;8.696;2023-03-05T12:40:42;4.63;;;1.33;;
16845;SDS011;8539;53.188;8.696;2023-03-05T12:43:28;2.65;;;0.75;;
16845;SDS011;8539;53.188;8.696;2023-03-05T12:48:47;3.67;;;0.88;;
16845;SDS011;8539;53.188;8.696;2023-03-05T12:51:14;1.45;;;0.63;;
16845;SDS011;8539;53.188;8.696;2023-03-05T12:54:20;2.88;;;0.82;;
16845;SDS011;8539;53.188;8.696;2023-03-05T12:59:47;4.30;;;0.82;;
16845;SDS011;8539;53.188;8.696;2023-03-05T13:02:20;6.15;;;2.75;;
16845;SDS011;8539;53.188;8.696;2023-03-05T13:04:48;0.82;;;0.38;;
16845;SDS011;8539;53.188;8.696;2023-03-05T13:07:20;1.42;;;0.65;;
16845;SDS011;8539;53.188;8.696;2023-03-05T13:09:50;1.02;;;0.57;;
16845;SDS011;8539;53.188;8.696;2023-03-05T13:12:18;3.42;;;0.93;;
16845;SDS011;8539;53.188;8.696;2023-03-05T13:14:45;6.63;;;0.90;;
16845;SDS011;8539;53.188;8.696;2023-03-05T13:17:32;1.67;;;0.57;;
16845;SDS011;8539;53.188;8.696;2023-03-05T13:20:22;2.75;;;0.60;;
16845;SDS011;8539;53.188;8.696;2023-03-05T13:23:01;2.85;;;0.60;;
16845;SDS011;8539;53.188;8.696;2023-03-05T13:26:02;5.78;;;1.20;;
16845;SDS011;8539;53.188;8.696;2023-03-05T13:28:29;3.17;;;0.85;;
16845;SDS011;8539;53.188;8.696;2023-03-05T13:30:58;1.23;;;0.50;;
16845;SDS011;8539;53.188;8.696;2023-03-05T13:33:29;3.80;;;0.63;;
16845;SDS011;8539;53.188;8.696;2023-03-05T13:35:58;1.38;;;0.70;;
16845;SDS011;8539;53.188;8.696;2023-03-05T13:38:32;4.55;;;0.63;;
16845;SDS011;8539;53.188;8.696;2023-03-05T13:41:00;4.20;;;0.65;;
16845;SDS011;8539;53.188;8.696;2023-03-05T13:43:53;3.67;;;0.98;;
16845;SDS011;8539;53.188;8.696;2023-03-05T13:46:25;1.25;;;0.60;;
16845;SDS011;8539;53.188;8.696;2023-03-05T13:49:16;3.83;;;1.02;;
16845;SDS011;8539;53.188;8.696;2023-03-05T13:51:48;2.47;;;0.90;;
16845;SDS011;8539;53.188;8.696;2023-03-05T13:54:16;1.83;;;1.02;;
16845;SDS011;8539;53.188;8.696;2023-03-05T13:59:26;2.60;;;1.10;;
16845;SDS011;8539;53.188;8.696;2023-03-05T14:01:54;2.40;;;0.90;;
16845;SDS011;8539;53.188;8.696;2023-03-05T14:04:44;2.97;;;0.70;;
16845;SDS011;8539;53.188;8.696;2023-03-05T14:09:48;2.22;;;0.77;;
16845;SDS011;8539;53.188;8.696;2023-03-05T14:12:31;8.27;;;1.63;;
16845;SDS011;8539;53.188;8.696;2023-03-05T14:15:18;2.30;;;0.90;;
16845;SDS011;8539;53.188;8.696;2023-03-05T14:17:50;1.00;;;0.70;;
16845;SDS011;8539;53.188;8.696;2023-03-05T14:22:52;1.42;;;0.65;;
16845;SDS011;8539;53.188;8.696;2023-03-05T14:25:27;2.97;;;0.73;;
16845;SDS011;8539;53.188;8.696;2023-03-05T14:27:59;6.15;;;3.33;;
16845;SDS011;8539;53.188;8.696;2023-03-05T14:30:26;2.20;;;1.35;;
16845;SDS011;8539;53.188;8.696;2023-03-05T14:32:55;2.13;;;0.63;;
16845;SDS011;8539;53.188;8.696;2023-03-05T14:35:23;4.95;;;1.35;;
16845;SDS011;8539;53.188;8.696;2023-03-05T14:37:52;3.38;;;0.60;;
16845;SDS011;8539;53.188;8.696;2023-03-05T14:40:21;3.42;;;0.88;;
16845;SDS011;8539;53.188;8.696;2023-03-05T14:43:01;1.77;;;0.40;;
16845;SDS011;8539;53.188;8.696;2023-03-05T14:47:58;1.02;;;0.60;;
16845;SDS011;8539;53.188;8.696;2023-03-05T14:50:33;0.60;;;0.45;;
16845;SDS011;8539;53.188;8.696;2023-03-05T14:53:11;1.05;;;0.30;;
16845;SDS011;8539;53.188;8.696;2023-03-05T14:55:41;0.85;;;0.45;;
16845;SDS011;8539;53.188;8.696;2023-03-05T14:58:13;1.70;;;0.50;;
16845;SDS011;8539;53.188;8.696;2023-03-05T15:00:46;2.67;;;0.68;;
16845;SDS011;8539;53.188;8.696;2023-03-05T15:03:15;0.77;;;0.50;;
16845;SDS011;8539;53.188;8.696;2023-03-05T15:05:42;0.60;;;0.60;;
16845;SDS011;8539;53.188;8.696;2023-03-05T15:08:14;1.35;;;0.73;;
16845;SDS011;8539;53.188;8.696;2023-03-05T15:10:44;0.30;;;0.30;;
16845;SDS011;8539;53.188;8.696;2023-03-05T15:13:11;1.85;;;0.70;;
16845;SDS011;8539;53.188;8.696;2023-03-05T15:15:38;0.95;;;0.60;;
16845;SDS011;8539;53.188;8.696;2023-03-05T15:18:05;1.90;;;0.60;;
16845;SDS011;8539;53.188;8.696;2023-03-05T15:20:31;1.08;;;0.80;;
16845;SDS011;8539;53.188;8.696;2023-03-05T15:22:58;2.88;;;1.48;;
16845;SDS011;8539;53.188;8.696;2023-03-05T15:25:24;5.10;;;1.10;;
16845;SDS011;8539;53.188;8.696;2023-03-05T15:27:53;1.67;;;1.45;;
16845;SDS011;8539;53.188;8.696;2023-03-05T15:30:27;1.35;;;1.08;;
16845;SDS011;8539;53.188;8.696;2023-03-05T15:32:55;1.83;;;0.70;;
16845;SDS011;8539;53.188;8.696;2023-03-05T15:35:23;1.02;;;0.75;;
16845;SDS011;8539;53.188;8.696;2023-03-05T15:37:50;2.25;;;0.80;;
16845;SDS011;8539;53.188;8.696;2023-03-05T15:40:16;2.50;;;1.00;;
16845;SDS011;8539;53.188;8.696;2023-03-05T15:42:43;1.42;;;0.70;;
16845;SDS011;8539;53.188;8.696;2023-03-05T15:45:09;1.20;;;0.57;;
16845;SDS011;8539;53.188;8.696;2023-03-05T15:47:35;2.35;;;0.73;;
16845;SDS011;8539;53.188;8.696;2023-03-05T15:50:01;2.55;;;0.63;;
16845;SDS011;8539;53.188;8.696;2023-03-05T15:52:28;1.23;;;0.57;;
16845;SDS011;8539;53.188;8.696;2023-03-05T15:54:54;0.93;;;0.80;;
16845;SDS011;8539;53.188;8.696;2023-03-05T15:57:20;4.68;;;1.20;;
16845;SDS011;8539;53.188;8.696;2023-03-05T15:59:49;0.95;;;0.82;;
16845;SDS011;8539;53.188;8.696;2023-03-05T16:02:15;1.20;;;1.02;;
16845;SDS011;8539;53.188;8.696;2023-03-05T16:04:41;3.30;;;0.90;;
16845;SDS011;8539;53.188;8.696;2023-03-05T16:07:07;1.30;;;1.17;;
16845;SDS011;8539;53.188;8.696;2023-03-05T16:09:35;3.67;;;0.80;;
16845;SDS011;8539;53.188;8.696;2023-03-05T16:12:06;4.85;;;1.02;;
16845;SDS011;8539;53.188;8.696;2023-03-05T16:14:36;2.95;;;1.30;;
16845;SDS011;8539;53.188;8.696;2023-03-05T16:17:04;3.22;;;0.93;;
16845;SDS011;8539;53.188;8.696;2023-03-05T16:19:31;4.38;;;1.17;;
16845;SDS011;8539;53.188;8.696;2023-03-05T16:22:01;1.52;;;1.23;;
16845;SDS011;8539;53.188;8.696;2023-03-05T16:24:27;2.03;;;1.55;;
16845;SDS011;8539;53.188;8.696;2023-03-05T16:26:53;2.05;;;1.50;;
16845;SDS011;8539;53.188;8.696;2023-03-05T16:29:19;3.58;;;1.73;;
16845;SDS011;8539;53.188;8.696;2023-03-05T16:31:45;6.53;;;1.48;;
16845;SDS011;8539;53.188;8.696;2023-03-05T16:34:12;3.60;;;1.70;;
16845;SDS011;8539;53.188;8.696;2023-03-05T16:36:45;4.47;;;1.50;;
16845;SDS011;8539;53.188;8.696;2023-03-05T16:39:13;2.75;;;1.67;;
16845;SDS011;8539;53.188;8.696;2023-03-05T16:41:39;2.28;;;1.10;;
16845;SDS011;8539;53.188;8.696;2023-03-05T16:44:05;2.15;;;1.15;;
16845;SDS011;8539;53.188;8.696;2023-03-05T16:46:31;3.63;;;1.30;;
16845;SDS011;8539;53.188;8.696;2023-03-05T16:48:57;5.93;;;1.50;;
16845;SDS011;8539;53.188;8.696;2023-03-05T16:51:23;5.30;;;1.65;;
16845;SDS011;8539;53.188;8.696;2023-03-05T16:53:51;2.15;;;1.33;;